createdAt,value
2023-02-13T00:00:38.466Z,38.43
2023-02-13T00:03:06.275Z,41.43
2023-02-13T00:05:34.078Z,34.53
2023-02-13T00:08:01.758Z,33.27
2023-02-13T00:10:29.663Z,31.53
2023-02-13T00:12:57.332Z,32.13
2023-02-13T00:15:25.112Z,29.07
2023-02-13T00:17:52.781Z,33.13
2023-02-13T00:20:20.576Z,38.23
2023-02-13T00:22:48.274Z,25.77
2023-02-13T00:25:16.013Z,21.17
2023-02-13T00:27:43.852Z,35.43
2023-02-13T00:30:12.008Z,33.40
2023-02-13T00:32:39.741Z,42.27
2023-02-13T00:35:07.710Z,38.50
2023-02-13T00:37:35.382Z,30.27
2023-02-13T00:40:03.283Z,31.57
2023-02-13T00:42:31.156Z,25.00
2023-02-13T00:44:58.891Z,28.77
2023-02-13T00:47:26.569Z,35.67
2023-02-13T00:49:54.312Z,31.60
2023-02-13T00:52:21.986Z,33.87
2023-02-13T00:54:51.183Z,31.03
2023-02-13T00:57:18.850Z,28.27
2023-02-13T00:59:46.585Z,33.47
2023-02-13T01:02:14.499Z,34.30
2023-02-13T01:04:42.338Z,34.70
2023-02-13T01:07:10.051Z,34.60
2023-02-13T01:09:37.738Z,47.73
2023-02-13T01:12:05.572Z,41.60
2023-02-13T01:14:33.527Z,36.30
2023-02-13T01:17:01.252Z,31.00
2023-02-13T01:19:28.951Z,28.57
2023-02-13T01:21:56.686Z,31.00
2023-02-13T01:24:24.403Z,33.40
2023-02-13T01:26:52.548Z,23.13
2023-02-13T01:29:21.882Z,27.97
2023-02-13T01:31:49.915Z,21.17
2023-02-13T01:34:18.376Z,32.37
2023-02-13T01:36:46.140Z,26.07
2023-02-13T01:39:13.840Z,24.73
2023-02-13T01:41:41.636Z,29.37
2023-02-13T01:44:47.804Z,22.67
2023-02-13T01:47:22.922Z,27.40
2023-02-13T01:49:51.706Z,31.60
2023-02-13T01:52:19.423Z,34.10
2023-02-13T01:54:47.122Z,28.80
2023-02-13T01:57:18.252Z,22.23
2023-02-13T01:59:55.481Z,28.70
2023-02-13T02:02:23.335Z,32.13
2023-02-13T02:04:51.485Z,30.07
2023-02-13T02:07:25.566Z,20.73
2023-02-13T02:10:02.046Z,29.17
2023-02-13T02:12:37.976Z,22.97
2023-02-13T02:15:08.058Z,19.53
2023-02-13T02:17:35.781Z,21.50
2023-02-13T02:20:19.657Z,22.33
2023-02-13T02:23:13.520Z,22.80
2023-02-13T02:25:54.309Z,16.33
2023-02-13T02:28:29.914Z,20.30
2023-02-13T02:31:18.373Z,17.13
2023-02-13T02:33:58.292Z,25.93
2023-02-13T02:36:54.672Z,29.70
2023-02-13T02:39:44.402Z,26.37
2023-02-13T02:42:15.263Z,19.60
2023-02-13T02:44:52.404Z,30.30
2023-02-13T02:47:45.386Z,25.53
2023-02-13T02:50:15.154Z,17.93
2023-02-13T02:53:04.101Z,26.93
2023-02-13T02:55:52.691Z,23.70
2023-02-13T02:58:45.344Z,25.23
2023-02-13T03:01:35.462Z,18.23
2023-02-13T03:04:22.214Z,26.93
2023-02-13T03:06:53.546Z,25.33
2023-02-13T03:09:45.833Z,16.97
2023-02-13T03:12:32.673Z,23.97
2023-02-13T03:15:00.370Z,14.13
2023-02-13T03:17:46.552Z,21.50
2023-02-13T03:20:58.609Z,17.57
2023-02-13T03:24:06.207Z,16.10
2023-02-13T03:27:08.446Z,21.97
2023-02-13T03:30:11.409Z,28.40
2023-02-13T03:33:07.994Z,21.47
2023-02-13T03:36:24.274Z,18.80
2023-02-13T03:39:03.171Z,21.60
2023-02-13T03:41:38.598Z,21.00
2023-02-13T03:44:24.978Z,13.57
2023-02-13T03:46:53.620Z,19.43
2023-02-13T03:49:52.814Z,22.97
2023-02-13T03:52:41.747Z,21.37
2023-02-13T03:55:30.597Z,17.30
2023-02-13T03:58:19.426Z,19.40
2023-02-13T04:00:50.069Z,14.97
2023-02-13T04:03:48.566Z,18.40
2023-02-13T04:06:19.839Z,22.10
2023-02-13T04:08:47.569Z,21.27
2023-02-13T04:11:25.798Z,14.43
2023-02-13T04:13:53.446Z,23.23
2023-02-13T04:16:32.317Z,25.70
2023-02-13T04:19:00.138Z,25.63
2023-02-13T04:21:27.909Z,16.33
2023-02-13T04:23:55.627Z,17.70
2023-02-13T04:26:23.444Z,19.47
2023-02-13T04:28:51.198Z,17.83
2023-02-13T04:31:18.973Z,22.43
2023-02-13T04:33:46.822Z,19.37
2023-02-13T04:36:14.532Z,29.17
2023-02-13T04:38:42.256Z,19.93
2023-02-13T04:41:09.950Z,19.10
2023-02-13T04:43:37.689Z,19.20
2023-02-13T04:46:05.575Z,28.73
2023-02-13T04:48:33.383Z,29.63
2023-02-13T04:51:01.077Z,34.60
2023-02-13T04:53:28.786Z,24.57
2023-02-13T04:55:56.548Z,27.97
2023-02-13T04:58:24.261Z,21.57
2023-02-13T05:00:52.010Z,23.30
2023-02-13T05:03:19.697Z,26.80
2023-02-13T05:05:48.437Z,32.80
2023-02-13T05:08:16.186Z,29.00
2023-02-13T05:10:43.884Z,21.57
2023-02-13T05:13:12.118Z,28.53
2023-02-13T05:15:39.924Z,24.07
2023-02-13T05:18:07.605Z,29.50
2023-02-13T05:20:35.356Z,21.70
2023-02-13T05:23:21.557Z,30.60
2023-02-13T05:25:49.435Z,26.80
2023-02-13T05:28:35.650Z,27.77
2023-02-13T05:31:03.729Z,15.90
2023-02-13T05:33:31.987Z,18.73
2023-02-13T05:35:59.728Z,17.60
2023-02-13T05:38:27.396Z,17.67
2023-02-13T05:40:55.592Z,12.20
2023-02-13T05:43:23.572Z,11.37
2023-02-13T05:45:52.287Z,15.93
2023-02-13T05:48:19.995Z,17.23
2023-02-13T05:50:48.275Z,9.50
2023-02-13T05:53:16.005Z,18.83
2023-02-13T05:55:43.735Z,8.53
2023-02-13T05:58:12.010Z,10.03
2023-02-13T06:00:39.801Z,15.67
2023-02-13T06:03:07.663Z,11.63
2023-02-13T06:05:35.412Z,12.07
2023-02-13T06:08:03.368Z,11.57
2023-02-13T06:10:31.128Z,10.60
2023-02-13T06:12:58.855Z,11.83
2023-02-13T06:15:26.600Z,16.23
2023-02-13T06:17:54.305Z,10.73
2023-02-13T06:20:22.091Z,13.33
2023-02-13T06:22:50.706Z,20.10
2023-02-13T06:25:19.259Z,17.70
2023-02-13T06:27:46.969Z,21.50
2023-02-13T06:30:15.310Z,16.53
2023-02-13T06:32:43.299Z,21.10
2023-02-13T06:35:11.004Z,20.70
2023-02-13T06:37:39.327Z,25.70
2023-02-13T06:40:08.096Z,28.00
2023-02-13T06:42:35.779Z,25.73
2023-02-13T06:45:03.749Z,24.67
2023-02-13T06:47:31.558Z,20.53
2023-02-13T06:49:59.295Z,27.40
2023-02-13T06:52:27.475Z,25.90
2023-02-13T06:54:55.216Z,29.90
2023-02-13T06:57:23.107Z,32.13
2023-02-13T06:59:50.883Z,39.20
2023-02-13T07:02:18.640Z,35.83
2023-02-13T07:04:46.334Z,37.40
2023-02-13T07:07:14.115Z,30.93
2023-02-13T07:09:41.892Z,45.43
2023-02-13T07:12:09.598Z,50.00
2023-02-13T07:14:37.350Z,42.03
2023-02-13T07:17:05.063Z,48.60
2023-02-13T07:19:32.990Z,49.00
2023-02-13T07:22:00.737Z,45.73
2023-02-13T07:24:28.466Z,40.30
2023-02-13T07:26:56.188Z,48.20
2023-02-13T07:29:23.971Z,37.77
2023-02-13T07:31:51.661Z,40.60
2023-02-13T07:34:19.431Z,49.47
2023-02-13T07:36:47.128Z,52.03
2023-02-13T07:39:14.904Z,42.53
2023-02-13T07:41:42.595Z,43.90
2023-02-13T07:44:10.422Z,37.40
2023-02-13T07:46:38.300Z,32.33
2023-02-13T07:49:06.027Z,36.05
2023-02-13T07:51:33.803Z,32.75
2023-02-13T07:54:02.146Z,31.98
2023-02-13T07:56:30.021Z,30.20
2023-02-13T07:58:57.732Z,26.42
2023-02-13T08:01:25.613Z,37.42
2023-02-13T08:03:53.460Z,37.70
2023-02-13T08:06:21.347Z,42.05
2023-02-13T08:08:49.115Z,34.05
2023-02-13T08:11:43.245Z,41.00
2023-02-13T08:14:11.046Z,41.75
2023-02-13T08:16:38.760Z,48.90
2023-02-13T08:19:06.519Z,41.30
2023-02-13T08:21:35.332Z,44.55
2023-02-13T08:24:03.062Z,45.50
2023-02-13T08:26:33.901Z,26.35
2023-02-13T08:29:01.882Z,28.00
2023-02-13T08:31:29.703Z,25.23
2023-02-13T08:33:57.734Z,21.35
2023-02-13T08:36:25.538Z,21.23
2023-02-13T08:38:53.265Z,24.60
2023-02-13T08:41:22.163Z,27.30
2023-02-13T08:43:50.072Z,28.90
2023-02-13T08:46:18.216Z,22.95
2023-02-13T08:48:46.024Z,25.42
2023-02-13T08:51:14.048Z,24.27
2023-02-13T08:53:42.552Z,27.13
2023-02-13T08:56:10.935Z,26.43
2023-02-13T08:58:38.701Z,22.93
2023-02-13T09:01:09.725Z,25.85
2023-02-13T09:03:37.565Z,24.38
2023-02-13T09:06:05.543Z,24.48
2023-02-13T09:08:34.980Z,22.52
2023-02-13T09:11:03.786Z,25.67
2023-02-13T09:13:35.403Z,25.33
2023-02-13T09:16:07.051Z,25.85
2023-02-13T09:18:35.269Z,26.23
2023-02-13T09:21:05.420Z,29.90
2023-02-13T09:23:33.955Z,23.10
2023-02-13T09:26:02.273Z,30.30
2023-02-13T09:28:30.481Z,31.03
2023-02-13T09:30:58.451Z,29.50
2023-02-13T09:33:26.399Z,25.20
2023-02-13T09:35:54.148Z,26.63
2023-02-13T09:38:21.848Z,26.57
2023-02-13T09:40:51.995Z,32.80
2023-02-13T09:43:33.599Z,27.87
2023-02-13T09:46:05.627Z,25.43
2023-02-13T09:48:35.675Z,21.53
2023-02-13T09:51:03.589Z,23.67
2023-02-13T09:53:33.459Z,21.47
2023-02-13T09:56:12.922Z,21.20
2023-02-13T09:58:47.839Z,28.03
2023-02-13T10:01:34.422Z,22.23
2023-02-13T10:04:32.136Z,25.50
2023-02-13T10:07:22.664Z,36.07
2023-02-13T10:10:22.798Z,28.77
2023-02-13T10:12:53.132Z,23.33
2023-02-13T10:15:51.970Z,20.80
2023-02-13T10:18:22.095Z,20.63
2023-02-13T10:20:54.198Z,19.57
2023-02-13T10:23:26.363Z,17.83
2023-02-13T10:25:58.357Z,14.70
2023-02-13T10:28:41.573Z,15.57
2023-02-13T10:31:16.450Z,20.57
2023-02-13T10:33:56.020Z,21.87
2023-02-13T10:36:31.731Z,15.13
2023-02-13T10:39:05.608Z,15.27
2023-02-13T10:41:43.076Z,13.07
2023-02-13T10:44:35.351Z,9.20
2023-02-13T10:47:24.364Z,11.33
2023-02-13T10:50:10.568Z,11.30
2023-02-13T10:52:51.621Z,18.83
2023-02-13T10:55:35.496Z,18.17
2023-02-13T10:58:17.457Z,20.43
2023-02-13T11:00:48.154Z,17.27
2023-02-13T11:03:20.218Z,16.20
2023-02-13T11:05:48.096Z,12.53
2023-02-13T11:08:43.279Z,17.73
2023-02-13T11:11:38.118Z,14.50
2023-02-13T11:14:13.316Z,12.63
2023-02-13T11:16:53.931Z,17.77
2023-02-13T11:19:24.406Z,15.90
2023-02-13T11:22:50.695Z,12.53
2023-02-13T11:25:22.387Z,12.53
2023-02-13T11:27:50.896Z,22.77
2023-02-13T11:30:34.505Z,22.57
2023-02-13T11:33:06.137Z,12.83
2023-02-13T11:35:35.240Z,16.23
2023-02-13T11:38:12.249Z,16.37
2023-02-13T11:40:41.789Z,13.80
2023-02-13T11:43:23.901Z,10.80
2023-02-13T11:46:09.177Z,14.07
2023-02-13T11:48:36.950Z,17.93
2023-02-13T11:51:04.815Z,13.70
2023-02-13T11:53:36.676Z,9.83
2023-02-13T11:56:04.344Z,13.50
2023-02-13T11:58:32.242Z,11.67
2023-02-13T12:01:21.521Z,13.07
2023-02-13T12:04:01.511Z,9.63
2023-02-13T12:06:29.425Z,9.37
2023-02-13T12:08:57.075Z,11.80
2023-02-13T12:11:48.857Z,8.60
2023-02-13T12:14:28.878Z,46.47
2023-02-13T12:17:05.878Z,32.50
2023-02-13T12:19:47.459Z,22.87
2023-02-13T12:22:52.964Z,13.63
2023-02-13T12:25:43.039Z,22.83
2023-02-13T12:28:18.611Z,27.67
2023-02-13T12:31:00.074Z,11.53
2023-02-13T12:33:50.685Z,21.53
2023-02-13T12:36:24.848Z,30.73
2023-02-13T12:38:58.633Z,55.40
2023-02-13T12:41:43.300Z,13.03
2023-02-13T12:44:14.032Z,18.23
2023-02-13T12:46:52.956Z,82.93
2023-02-13T12:49:44.699Z,37.63
2023-02-13T12:52:33.469Z,9.90
2023-02-13T12:55:14.253Z,18.50
2023-02-13T12:58:03.268Z,19.77
2023-02-13T13:00:42.107Z,19.93
2023-02-13T13:03:38.937Z,16.40
2023-02-13T13:06:19.816Z,14.33
2023-02-13T13:08:59.803Z,11.50
2023-02-13T13:11:34.489Z,13.73
2023-02-13T13:14:11.236Z,13.23
2023-02-13T13:16:48.406Z,28.30
2023-02-13T13:19:25.781Z,37.90
2023-02-13T13:22:11.560Z,20.33
2023-02-13T13:24:48.501Z,21.47
2023-02-13T13:27:33.878Z,15.33
2023-02-13T13:30:26.099Z,10.97
2023-02-13T13:33:15.749Z,10.10
2023-02-13T13:35:47.855Z,31.63
2023-02-13T13:38:19.557Z,27.77
2023-02-13T13:40:50.238Z,17.07
2023-02-13T13:43:40.707Z,36.27
2023-02-13T13:46:32.584Z,18.00
2023-02-13T13:49:25.115Z,15.40
2023-02-13T13:51:52.881Z,11.57
2023-02-13T13:54:23.716Z,21.97
2023-02-13T13:56:54.392Z,19.50
2023-02-13T13:59:34.206Z,23.63
2023-02-13T14:02:16.895Z,14.40
2023-02-13T14:05:12.300Z,23.93
2023-02-13T14:07:43.731Z,19.17
2023-02-13T14:10:26.597Z,15.77
2023-02-13T14:12:57.100Z,10.83
2023-02-13T14:15:34.046Z,35.27
2023-02-13T14:18:12.925Z,18.73
2023-02-13T14:20:41.775Z,16.70
2023-02-13T14:23:28.140Z,18.60
2023-02-13T14:26:16.899Z,12.83
2023-02-13T14:28:50.391Z,13.13
2023-02-13T14:31:44.108Z,10.03
2023-02-13T14:34:11.858Z,15.97
2023-02-13T14:36:44.352Z,19.40
2023-02-13T14:39:30.835Z,27.20
2023-02-13T14:42:00.197Z,19.43
2023-02-13T14:45:00.033Z,20.73
2023-02-13T14:47:33.689Z,24.73
2023-02-13T14:50:02.028Z,15.03
2023-02-13T14:52:35.488Z,17.37
2023-02-13T14:55:04.280Z,14.33
2023-02-13T14:57:44.413Z,10.97
2023-02-13T15:00:30.691Z,10.67
2023-02-13T15:03:05.181Z,14.47
2023-02-13T15:05:34.010Z,15.60
2023-02-13T15:08:15.441Z,11.67
2023-02-13T15:10:46.976Z,16.20
2023-02-13T15:13:16.795Z,14.13
2023-02-13T15:15:45.371Z,12.53
2023-02-13T15:18:24.594Z,9.63
2023-02-13T15:20:54.514Z,15.23
2023-02-13T15:23:33.029Z,12.73
2023-02-13T15:26:02.036Z,12.63
2023-02-13T15:28:30.152Z,14.90
2023-02-13T15:30:59.370Z,12.47
2023-02-13T15:33:36.008Z,10.80
2023-02-13T15:36:06.090Z,13.97
2023-02-13T15:38:36.460Z,8.73
2023-02-13T15:41:12.950Z,7.87
2023-02-13T15:43:45.980Z,8.50
2023-02-13T15:46:28.184Z,9.43
2023-02-13T15:48:57.889Z,10.63
2023-02-13T15:51:27.477Z,7.37
2023-02-13T15:54:05.797Z,10.77
2023-02-13T15:56:33.628Z,11.43
2023-02-13T15:59:01.308Z,13.53
2023-02-13T16:01:29.158Z,18.90
2023-02-13T16:04:00.818Z,15.03
2023-02-13T16:06:28.561Z,14.70
2023-02-13T16:08:57.844Z,15.93
2023-02-13T16:11:28.265Z,20.20
2023-02-13T16:14:11.038Z,11.40
2023-02-13T16:17:04.866Z,14.50
2023-02-13T16:19:51.702Z,9.63
2023-02-13T16:22:39.731Z,9.23
2023-02-13T16:25:12.408Z,41.23
2023-02-13T16:27:47.555Z,46.30
2023-02-13T16:30:41.131Z,34.50
2023-02-13T16:33:32.574Z,15.03
2023-02-13T16:36:09.240Z,38.43
2023-02-13T16:38:44.271Z,19.03
2023-02-13T16:41:17.822Z,16.07
2023-02-13T16:43:51.954Z,26.07
2023-02-13T16:46:36.262Z,39.60
2023-02-13T16:49:08.060Z,21.60
2023-02-13T16:51:55.159Z,32.83
2023-02-13T16:54:30.317Z,21.33
2023-02-13T16:57:05.349Z,19.40
2023-02-13T16:59:47.761Z,18.60
2023-02-13T17:02:21.286Z,16.83
2023-02-13T17:04:53.745Z,17.73
2023-02-13T17:07:23.498Z,21.50
2023-02-13T17:09:59.561Z,26.23
2023-02-13T17:12:28.268Z,25.83
2023-02-13T17:14:59.821Z,18.93
2023-02-13T17:17:30.397Z,21.60
2023-02-13T17:19:58.962Z,33.57
2023-02-13T17:22:36.856Z,30.53
2023-02-13T17:25:07.515Z,19.77
2023-02-13T17:27:35.294Z,18.50
2023-02-13T17:30:03.163Z,23.63
2023-02-13T17:32:30.954Z,19.27
2023-02-13T17:34:58.675Z,35.27
2023-02-13T17:37:27.367Z,28.03
2023-02-13T17:39:55.051Z,26.03
2023-02-13T17:42:27.016Z,23.67
2023-02-13T17:44:56.531Z,23.63
2023-02-13T17:47:25.126Z,16.13
2023-02-13T17:49:59.201Z,26.27
2023-02-13T17:52:32.634Z,27.03
2023-02-13T17:55:00.342Z,27.87
2023-02-13T17:57:28.111Z,25.43
2023-02-13T17:59:56.946Z,27.27
2023-02-13T18:02:26.595Z,31.40
2023-02-13T18:04:54.392Z,27.97
2023-02-13T18:07:22.363Z,27.40
2023-02-13T18:09:50.328Z,24.43
2023-02-13T18:12:22.892Z,28.43
2023-02-13T18:14:51.391Z,21.93
2023-02-13T18:17:19.257Z,31.60
2023-02-13T18:19:47.018Z,28.57
2023-02-13T18:22:15.007Z,18.43
2023-02-13T18:24:42.764Z,24.97
2023-02-13T18:27:12.292Z,21.17
2023-02-13T18:29:40.285Z,21.63
2023-02-13T18:32:10.232Z,23.13
2023-02-13T18:34:39.016Z,25.23
2023-02-13T18:37:07.015Z,25.70
2023-02-13T18:39:34.866Z,23.03
2023-02-13T18:42:02.732Z,15.63
2023-02-13T18:44:30.637Z,16.93
2023-02-13T18:46:58.517Z,21.57
2023-02-13T18:49:26.246Z,19.33
2023-02-13T18:51:54.017Z,22.77
2023-02-13T18:54:21.718Z,27.33
2023-02-13T18:56:49.480Z,36.50
2023-02-13T18:59:18.567Z,49.00
2023-02-13T19:01:46.419Z,59.63
2023-02-13T19:04:14.133Z,62.47
2023-02-13T19:06:42.482Z,42.87
2023-02-13T19:09:10.273Z,27.57
2023-02-13T19:11:38.994Z,23.47
2023-02-13T19:14:06.810Z,24.10
2023-02-13T19:16:35.026Z,17.80
2023-02-13T19:19:04.365Z,20.13
2023-02-13T19:21:33.109Z,14.77
2023-02-13T19:24:02.216Z,13.93
2023-02-13T19:26:29.942Z,14.97
2023-02-13T19:28:57.798Z,16.57
2023-02-13T19:31:30.164Z,32.20
2023-02-13T19:33:59.504Z,34.23
2023-02-13T19:36:28.813Z,34.73
2023-02-13T19:38:58.226Z,37.20
2023-02-13T19:41:26.078Z,27.17
2023-02-13T19:43:53.865Z,37.83
2023-02-13T19:46:23.230Z,45.27
2023-02-13T19:48:51.219Z,30.53
2023-02-13T19:51:21.187Z,35.47
2023-02-13T19:53:48.987Z,32.30
2023-02-13T19:56:16.665Z,31.27
2023-02-13T19:58:44.453Z,19.90
2023-02-13T20:01:16.996Z,30.43
2023-02-13T20:03:44.957Z,22.63
2023-02-13T20:06:15.086Z,16.63
2023-02-13T20:08:43.169Z,20.33
2023-02-13T20:11:12.119Z,94.27
2023-02-13T20:13:39.876Z,30.27
2023-02-13T20:16:08.981Z,20.03
2023-02-13T20:18:37.025Z,18.67
2023-02-13T20:21:15.109Z,15.57
2023-02-13T20:23:43.246Z,18.23
2023-02-13T20:26:13.742Z,16.50
2023-02-13T20:28:41.705Z,16.27
2023-02-13T20:31:14.346Z,13.57
2023-02-13T20:33:42.249Z,19.30
2023-02-13T20:36:14.805Z,19.33
2023-02-13T20:38:42.645Z,23.37
2023-02-13T20:41:11.090Z,19.27
2023-02-13T20:43:38.843Z,19.37
2023-02-13T20:46:06.777Z,18.60
2023-02-13T20:48:38.305Z,20.10
2023-02-13T20:51:07.719Z,24.70
2023-02-13T20:53:35.416Z,23.53
2023-02-13T20:56:06.601Z,27.03
2023-02-13T20:58:34.644Z,25.07
2023-02-13T21:01:02.826Z,24.57
2023-02-13T21:03:30.754Z,28.03
2023-02-13T21:05:58.521Z,31.07
2023-02-13T21:08:26.293Z,29.23
2023-02-13T21:10:53.998Z,23.50
2023-02-13T21:13:21.749Z,24.13
2023-02-13T21:15:53.661Z,42.93
2023-02-13T21:18:21.548Z,31.57
2023-02-13T21:20:49.895Z,27.03
2023-02-13T21:23:17.670Z,29.53
2023-02-13T21:25:45.405Z,50.50
2023-02-13T21:28:13.154Z,32.07
2023-02-13T21:30:40.858Z,39.27
2023-02-13T21:33:08.617Z,36.20
2023-02-13T21:35:36.275Z,22.27
2023-02-13T21:38:04.007Z,33.97
2023-02-13T21:40:31.677Z,29.43
2023-02-13T21:42:59.436Z,22.47
2023-02-13T21:45:27.271Z,30.17
2023-02-13T21:47:56.589Z,25.10
2023-02-13T21:50:24.378Z,33.77
2023-02-13T21:52:52.173Z,40.27
2023-02-13T21:55:19.900Z,26.50
2023-02-13T21:57:47.692Z,20.03
2023-02-13T22:00:15.914Z,21.63
2023-02-13T22:02:43.813Z,18.70
2023-02-13T22:05:11.492Z,27.13
2023-02-13T22:07:59.144Z,14.43
2023-02-13T22:10:26.916Z,18.73
2023-02-13T22:12:54.699Z,18.87
2023-02-13T22:15:22.496Z,18.00
2023-02-13T22:17:50.270Z,10.90
2023-02-13T22:20:18.899Z,12.10
2023-02-13T22:22:46.647Z,17.47
2023-02-13T22:25:14.322Z,16.83
2023-02-13T22:27:48.102Z,15.77
2023-02-13T22:30:16.008Z,14.07
2023-02-13T22:32:43.710Z,9.53
2023-02-13T22:35:11.457Z,11.53
2023-02-13T22:37:39.194Z,10.53
2023-02-13T22:40:07.919Z,14.50
2023-02-13T22:42:35.705Z,15.57
2023-02-13T22:45:03.513Z,13.07
2023-02-13T22:47:31.325Z,13.77
2023-02-13T22:49:59.008Z,20.47
2023-02-13T22:52:26.740Z,10.77
2023-02-13T22:54:54.414Z,18.80
2023-02-13T22:57:22.125Z,25.13
2023-02-13T22:59:49.785Z,16.77
2023-02-13T23:02:17.591Z,14.53
2023-02-13T23:04:47.812Z,11.07
2023-02-13T23:07:18.217Z,11.97
2023-02-13T23:09:45.991Z,9.00
2023-02-13T23:12:33.088Z,16.13
2023-02-13T23:15:00.800Z,12.53
2023-02-13T23:17:47.180Z,11.90
2023-02-13T23:20:15.130Z,13.37
2023-02-13T23:22:42.861Z,13.23
2023-02-13T23:25:10.775Z,14.90
2023-02-13T23:27:38.517Z,12.30
2023-02-13T23:30:07.293Z,13.30
2023-02-13T23:32:35.308Z,14.23
2023-02-13T23:35:03.055Z,10.87
2023-02-13T23:37:30.720Z,12.77
2023-02-13T23:39:58.442Z,16.83
2023-02-13T23:42:26.115Z,18.60
2023-02-13T23:44:53.809Z,13.97
2023-02-13T23:47:21.627Z,18.27
2023-02-13T23:49:49.394Z,19.03
2023-02-13T23:52:17.164Z,20.57
2023-02-13T23:54:46.145Z,19.23
2023-02-13T23:57:13.898Z,22.40
2023-02-13T23:59:41.699Z,23.13
